sensor_id;sensor_type;location;lat;lon;timestamp;temperature;humidity
25436;DHT22;13363;52.772;-3.890;2022-08-19T00:00:30;16.00;99.90
25436;DHT22;13363;52.772;-3.890;2022-08-19T00:02:56;15.90;99.90
25436;DHT22;13363;52.772;-3.890;2022-08-19T00:05:22;15.90;99.90
25436;DHT22;13363;52.772;-3.890;2022-08-19T00:07:50;15.80;99.90
25436;DHT22;13363;52.772;-3.890;2022-08-19T00:13:38;15.80;99.90
25436;DHT22;13363;52.772;-3.890;2022-08-19T00:16:05;15.70;99.90
25436;DHT22;13363;52.772;-3.890;2022-08-19T00:18:32;15.60;99.90
25436;DHT22;13363;52.772;-3.890;2022-08-19T00:20:58;15.60;99.90
25436;DHT22;13363;52.772;-3.890;2022-08-19T00:23:26;15.50;99.90
25436;DHT22;13363;52.772;-3.890;2022-08-19T00:25:53;15.40;99.90
25436;DHT22;13363;52.772;-3.890;2022-08-19T00:28:19;15.30;99.90
25436;DHT22;13363;52.772;-3.890;2022-08-19T00:30:46;15.20;99.90
25436;DHT22;13363;52.772;-3.890;2022-08-19T00:33:12;15.10;99.90
25436;DHT22;13363;52.772;-3.890;2022-08-19T00:38:05;15.00;99.90
25436;DHT22;13363;52.772;-3.890;2022-08-19T00:40:32;14.90;99.90
25436;DHT22;13363;52.772;-3.890;2022-08-19T00:42:58;14.80;99.90
25436;DHT22;13363;52.772;-3.890;2022-08-19T00:45:26;14.80;99.90
25436;DHT22;13363;52.772;-3.890;2022-08-19T00:47:53;14.80;99.90
25436;DHT22;13363;52.772;-3.890;2022-08-19T00:50:21;14.80;99.90
25436;DHT22;13363;52.772;-3.890;2022-08-19T00:52:49;14.80;99.90
25436;DHT22;13363;52.772;-3.890;2022-08-19T00:55:21;14.80;99.90
25436;DHT22;13363;52.772;-3.890;2022-08-19T00:58:04;14.80;99.90
25436;DHT22;13363;52.772;-3.890;2022-08-19T01:00:32;14.80;99.90
25436;DHT22;13363;52.772;-3.890;2022-08-19T01:03:08;14.80;99.90
25436;DHT22;13363;52.772;-3.890;2022-08-19T01:05:35;14.80;99.90
25436;DHT22;13363;52.772;-3.890;2022-08-19T01:08:04;14.80;99.90
25436;DHT22;13363;52.772;-3.890;2022-08-19T01:10:33;14.80;99.90
25436;DHT22;13363;52.772;-3.890;2022-08-19T01:13:02;14.70;99.90
25436;DHT22;13363;52.772;-3.890;2022-08-19T01:15:35;14.80;99.90
25436;DHT22;13363;52.772;-3.890;2022-08-19T01:18:11;14.70;99.90
25436;DHT22;13363;52.772;-3.890;2022-08-19T01:20:39;14.70;99.90
25436;DHT22;13363;52.772;-3.890;2022-08-19T01:23:05;14.60;99.90
25436;DHT22;13363;52.772;-3.890;2022-08-19T01:25:39;14.60;99.90
25436;DHT22;13363;52.772;-3.890;2022-08-19T01:28:07;14.60;99.90
25436;DHT22;13363;52.772;-3.890;2022-08-19T01:30:34;14.50;99.90
25436;DHT22;13363;52.772;-3.890;2022-08-19T01:33:01;14.50;99.90
25436;DHT22;13363;52.772;-3.890;2022-08-19T01:35:29;14.50;99.90
25436;DHT22;13363;52.772;-3.890;2022-08-19T01:37:59;14.40;99.90
25436;DHT22;13363;52.772;-3.890;2022-08-19T01:40:30;14.40;99.90
25436;DHT22;13363;52.772;-3.890;2022-08-19T01:42:56;14.40;99.90
25436;DHT22;13363;52.772;-3.890;2022-08-19T01:45:25;14.40;99.90
25436;DHT22;13363;52.772;-3.890;2022-08-19T01:47:52;14.40;99.90
25436;DHT22;13363;52.772;-3.890;2022-08-19T01:50:18;14.30;99.90
25436;DHT22;13363;52.772;-3.890;2022-08-19T01:52:44;14.30;99.90
25436;DHT22;13363;52.772;-3.890;2022-08-19T01:55:16;14.30;99.90
25436;DHT22;13363;52.772;-3.890;2022-08-19T01:57:46;14.30;99.90
25436;DHT22;13363;52.772;-3.890;2022-08-19T02:00:15;14.20;99.90
25436;DHT22;13363;52.772;-3.890;2022-08-19T02:02:42;14.20;99.90
25436;DHT22;13363;52.772;-3.890;2022-08-19T02:05:09;14.00;99.90
25436;DHT22;13363;52.772;-3.890;2022-08-19T02:07:36;13.90;99.90
25436;DHT22;13363;52.772;-3.890;2022-08-19T02:10:08;13.90;99.90
25436;DHT22;13363;52.772;-3.890;2022-08-19T02:12:34;13.80;99.90
25436;DHT22;13363;52.772;-3.890;2022-08-19T02:15:01;13.70;99.90
25436;DHT22;13363;52.772;-3.890;2022-08-19T02:17:28;13.70;99.90
25436;DHT22;13363;52.772;-3.890;2022-08-19T02:19:57;13.70;99.90
25436;DHT22;13363;52.772;-3.890;2022-08-19T02:22:24;13.70;99.90
25436;DHT22;13363;52.772;-3.890;2022-08-19T02:24:52;13.70;99.90
25436;DHT22;13363;52.772;-3.890;2022-08-19T02:27:18;13.60;99.90
25436;DHT22;13363;52.772;-3.890;2022-08-19T02:29:46;13.60;99.90
25436;DHT22;13363;52.772;-3.890;2022-08-19T02:32:12;13.60;99.90
25436;DHT22;13363;52.772;-3.890;2022-08-19T02:34:37;13.60;99.90
25436;DHT22;13363;52.772;-3.890;2022-08-19T02:37:03;13.60;99.90
25436;DHT22;13363;52.772;-3.890;2022-08-19T02:39:29;13.60;99.90
25436;DHT22;13363;52.772;-3.890;2022-08-19T02:41:55;13.50;99.90
25436;DHT22;13363;52.772;-3.890;2022-08-19T02:44:21;13.50;99.90
25436;DHT22;13363;52.772;-3.890;2022-08-19T02:46:49;13.50;99.90
25436;DHT22;13363;52.772;-3.890;2022-08-19T02:49:15;13.50;99.90
25436;DHT22;13363;52.772;-3.890;2022-08-19T02:51:44;13.50;99.90
25436;DHT22;13363;52.772;-3.890;2022-08-19T02:54:12;13.50;99.90
25436;DHT22;13363;52.772;-3.890;2022-08-19T02:56:39;13.50;99.90
25436;DHT22;13363;52.772;-3.890;2022-08-19T02:59:06;13.50;99.90
25436;DHT22;13363;52.772;-3.890;2022-08-19T03:01:34;13.60;99.90
25436;DHT22;13363;52.772;-3.890;2022-08-19T03:04:02;13.60;99.90
25436;DHT22;13363;52.772;-3.890;2022-08-19T03:06:29;13.60;99.90
25436;DHT22;13363;52.772;-3.890;2022-08-19T03:08:56;13.60;99.90
25436;DHT22;13363;52.772;-3.890;2022-08-19T03:11:25;13.60;99.90
25436;DHT22;13363;52.772;-3.890;2022-08-19T03:13:51;13.50;99.90
25436;DHT22;13363;52.772;-3.890;2022-08-19T03:16:19;13.50;99.90
25436;DHT22;13363;52.772;-3.890;2022-08-19T03:18:45;13.50;99.90
25436;DHT22;13363;52.772;-3.890;2022-08-19T03:21:22;13.50;99.90
25436;DHT22;13363;52.772;-3.890;2022-08-19T03:23:49;13.50;99.90
25436;DHT22;13363;52.772;-3.890;2022-08-19T03:26:16;13.40;99.90
25436;DHT22;13363;52.772;-3.890;2022-08-19T03:28:43;13.30;99.90
25436;DHT22;13363;52.772;-3.890;2022-08-19T03:31:14;13.20;99.90
25436;DHT22;13363;52.772;-3.890;2022-08-19T03:33:40;13.20;99.90
25436;DHT22;13363;52.772;-3.890;2022-08-19T03:36:08;13.10;99.90
25436;DHT22;13363;52.772;-3.890;2022-08-19T03:38:37;13.10;99.90
25436;DHT22;13363;52.772;-3.890;2022-08-19T03:41:06;13.00;99.90
25436;DHT22;13363;52.772;-3.890;2022-08-19T03:43:35;13.00;99.90
25436;DHT22;13363;52.772;-3.890;2022-08-19T03:46:07;12.90;99.90
25436;DHT22;13363;52.772;-3.890;2022-08-19T03:48:35;12.90;99.90
25436;DHT22;13363;52.772;-3.890;2022-08-19T03:51:02;12.90;99.90
25436;DHT22;13363;52.772;-3.890;2022-08-19T03:53:29;12.80;99.90
25436;DHT22;13363;52.772;-3.890;2022-08-19T03:55:57;12.90;99.90
25436;DHT22;13363;52.772;-3.890;2022-08-19T03:58:27;12.90;99.90
25436;DHT22;13363;52.772;-3.890;2022-08-19T04:00:57;12.80;99.90
25436;DHT22;13363;52.772;-3.890;2022-08-19T04:03:24;12.80;99.90
25436;DHT22;13363;52.772;-3.890;2022-08-19T04:05:52;12.80;99.90
25436;DHT22;13363;52.772;-3.890;2022-08-19T04:08:19;12.80;99.90
25436;DHT22;13363;52.772;-3.890;2022-08-19T04:10:49;12.80;99.90
25436;DHT22;13363;52.772;-3.890;2022-08-19T04:13:17;12.80;99.90
25436;DHT22;13363;52.772;-3.890;2022-08-19T04:15:44;12.80;99.90
25436;DHT22;13363;52.772;-3.890;2022-08-19T04:18:12;12.80;99.90
25436;DHT22;13363;52.772;-3.890;2022-08-19T04:20:45;12.80;99.90
25436;DHT22;13363;52.772;-3.890;2022-08-19T04:23:12;12.80;99.90
25436;DHT22;13363;52.772;-3.890;2022-08-19T04:25:40;12.80;99.90
25436;DHT22;13363;52.772;-3.890;2022-08-19T04:28:09;12.90;99.90
25436;DHT22;13363;52.772;-3.890;2022-08-19T04:30:40;12.80;99.90
25436;DHT22;13363;52.772;-3.890;2022-08-19T04:33:07;12.80;99.90
25436;DHT22;13363;52.772;-3.890;2022-08-19T04:35:41;12.80;99.90
25436;DHT22;13363;52.772;-3.890;2022-08-19T04:38:08;12.80;99.90
25436;DHT22;13363;52.772;-3.890;2022-08-19T04:40:43;12.90;99.90
25436;DHT22;13363;52.772;-3.890;2022-08-19T04:43:28;12.80;99.90
25436;DHT22;13363;52.772;-3.890;2022-08-19T04:45:54;12.80;99.90
25436;DHT22;13363;52.772;-3.890;2022-08-19T04:48:20;12.80;99.90
25436;DHT22;13363;52.772;-3.890;2022-08-19T04:50:51;12.80;99.90
25436;DHT22;13363;52.772;-3.890;2022-08-19T04:53:34;12.80;99.90
25436;DHT22;13363;52.772;-3.890;2022-08-19T04:56:08;12.80;99.90
25436;DHT22;13363;52.772;-3.890;2022-08-19T04:58:36;12.80;99.90
25436;DHT22;13363;52.772;-3.890;2022-08-19T05:01:04;12.80;99.90
25436;DHT22;13363;52.772;-3.890;2022-08-19T05:03:30;12.70;99.90
25436;DHT22;13363;52.772;-3.890;2022-08-19T05:06:08;12.70;99.90
25436;DHT22;13363;52.772;-3.890;2022-08-19T05:08:36;12.80;99.90
25436;DHT22;13363;52.772;-3.890;2022-08-19T05:11:09;12.70;99.90
25436;DHT22;13363;52.772;-3.890;2022-08-19T05:13:36;12.60;99.90
25436;DHT22;13363;52.772;-3.890;2022-08-19T05:16:03;12.70;99.90
25436;DHT22;13363;52.772;-3.890;2022-08-19T05:18:29;12.80;99.90
25436;DHT22;13363;52.772;-3.890;2022-08-19T05:21:17;13.00;99.90
25436;DHT22;13363;52.772;-3.890;2022-08-19T05:24:02;13.10;99.90
25436;DHT22;13363;52.772;-3.890;2022-08-19T05:26:28;13.00;99.90
25436;DHT22;13363;52.772;-3.890;2022-08-19T05:28:55;13.10;99.90
25436;DHT22;13363;52.772;-3.890;2022-08-19T05:31:21;13.20;99.90
25436;DHT22;13363;52.772;-3.890;2022-08-19T05:33:47;13.10;99.90
25436;DHT22;13363;52.772;-3.890;2022-08-19T05:36:14;13.20;99.90
25436;DHT22;13363;52.772;-3.890;2022-08-19T05:38:40;13.30;99.90
25436;DHT22;13363;52.772;-3.890;2022-08-19T05:41:10;13.30;99.90
25436;DHT22;13363;52.772;-3.890;2022-08-19T05:43:36;13.30;99.90
25436;DHT22;13363;52.772;-3.890;2022-08-19T05:46:06;13.30;99.90
25436;DHT22;13363;52.772;-3.890;2022-08-19T05:48:36;13.40;99.90
25436;DHT22;13363;52.772;-3.890;2022-08-19T05:51:07;13.40;99.90
25436;DHT22;13363;52.772;-3.890;2022-08-19T05:53:36;13.60;99.90
25436;DHT22;13363;52.772;-3.890;2022-08-19T05:56:12;13.70;99.90
25436;DHT22;13363;52.772;-3.890;2022-08-19T05:58:38;13.90;99.90
25436;DHT22;13363;52.772;-3.890;2022-08-19T06:01:13;14.00;99.90
25436;DHT22;13363;52.772;-3.890;2022-08-19T06:03:39;14.10;99.90
25436;DHT22;13363;52.772;-3.890;2022-08-19T06:06:07;14.10;99.90
25436;DHT22;13363;52.772;-3.890;2022-08-19T06:08:35;14.20;99.90
25436;DHT22;13363;52.772;-3.890;2022-08-19T06:13:42;14.20;99.90
25436;DHT22;13363;52.772;-3.890;2022-08-19T06:16:08;14.20;99.90
25436;DHT22;13363;52.772;-3.890;2022-08-19T06:18:34;14.20;99.90
25436;DHT22;13363;52.772;-3.890;2022-08-19T06:21:00;14.20;99.90
25436;DHT22;13363;52.772;-3.890;2022-08-19T06:23:29;14.20;99.90
25436;DHT22;13363;52.772;-3.890;2022-08-19T06:25:56;14.40;99.90
25436;DHT22;13363;52.772;-3.890;2022-08-19T06:28:22;14.50;99.90
25436;DHT22;13363;52.772;-3.890;2022-08-19T06:30:49;14.70;99.90
25436;DHT22;13363;52.772;-3.890;2022-08-19T06:33:16;14.90;99.90
25436;DHT22;13363;52.772;-3.890;2022-08-19T06:35:42;15.00;99.90
25436;DHT22;13363;52.772;-3.890;2022-08-19T06:38:08;15.10;99.90
25436;DHT22;13363;52.772;-3.890;2022-08-19T06:40:35;15.10;99.90
25436;DHT22;13363;52.772;-3.890;2022-08-19T06:43:02;15.10;99.90
25436;DHT22;13363;52.772;-3.890;2022-08-19T06:45:28;15.20;99.90
25436;DHT22;13363;52.772;-3.890;2022-08-19T06:47:55;15.30;99.90
25436;DHT22;13363;52.772;-3.890;2022-08-19T06:50:26;15.50;99.90
25436;DHT22;13363;52.772;-3.890;2022-08-19T06:52:52;16.40;99.90
25436;DHT22;13363;52.772;-3.890;2022-08-19T06:55:18;17.80;99.90
25436;DHT22;13363;52.772;-3.890;2022-08-19T06:57:43;19.60;99.90
25436;DHT22;13363;52.772;-3.890;2022-08-19T07:00:12;21.10;99.90
25436;DHT22;13363;52.772;-3.890;2022-08-19T07:02:43;22.20;99.90
25436;DHT22;13363;52.772;-3.890;2022-08-19T07:05:09;22.00;99.90
25436;DHT22;13363;52.772;-3.890;2022-08-19T07:07:41;21.80;99.90
25436;DHT22;13363;52.772;-3.890;2022-08-19T07:10:11;21.40;99.90
25436;DHT22;13363;52.772;-3.890;2022-08-19T07:12:38;20.70;99.90
25436;DHT22;13363;52.772;-3.890;2022-08-19T07:15:06;19.40;99.90
25436;DHT22;13363;52.772;-3.890;2022-08-19T07:17:34;18.60;99.90
25436;DHT22;13363;52.772;-3.890;2022-08-19T07:20:05;18.10;99.90
25436;DHT22;13363;52.772;-3.890;2022-08-19T07:22:35;17.80;99.90
25436;DHT22;13363;52.772;-3.890;2022-08-19T07:25:05;18.50;99.90
25436;DHT22;13363;52.772;-3.890;2022-08-19T07:27:34;19.60;99.90
25436;DHT22;13363;52.772;-3.890;2022-08-19T07:30:02;20.00;99.90
25436;DHT22;13363;52.772;-3.890;2022-08-19T07:32:29;20.40;99.90
25436;DHT22;13363;52.772;-3.890;2022-08-19T07:35:00;19.70;99.90
25436;DHT22;13363;52.772;-3.890;2022-08-19T07:37:30;19.30;99.90
25436;DHT22;13363;52.772;-3.890;2022-08-19T07:39:57;19.40;99.90
25436;DHT22;13363;52.772;-3.890;2022-08-19T07:42:25;20.60;99.90
25436;DHT22;13363;52.772;-3.890;2022-08-19T07:44:58;21.40;99.90
25436;DHT22;13363;52.772;-3.890;2022-08-19T07:47:25;20.60;99.90
25436;DHT22;13363;52.772;-3.890;2022-08-19T07:49:55;19.00;99.90
25436;DHT22;13363;52.772;-3.890;2022-08-19T07:52:21;17.60;99.90
25436;DHT22;13363;52.772;-3.890;2022-08-19T07:54:48;17.30;99.90
25436;DHT22;13363;52.772;-3.890;2022-08-19T07:57:15;18.10;99.90
25436;DHT22;13363;52.772;-3.890;2022-08-19T07:59:42;18.60;99.90
25436;DHT22;13363;52.772;-3.890;2022-08-19T08:02:08;18.50;99.90
25436;DHT22;13363;52.772;-3.890;2022-08-19T08:04:34;18.90;99.90
25436;DHT22;13363;52.772;-3.890;2022-08-19T08:07:19;18.90;99.90
25436;DHT22;13363;52.772;-3.890;2022-08-19T08:10:06;18.50;99.90
25436;DHT22;13363;52.772;-3.890;2022-08-19T08:12:37;18.20;99.90
25436;DHT22;13363;52.772;-3.890;2022-08-19T08:15:12;18.10;99.90
25436;DHT22;13363;52.772;-3.890;2022-08-19T08:17:42;18.40;99.90
25436;DHT22;13363;52.772;-3.890;2022-08-19T08:20:14;18.80;99.90
25436;DHT22;13363;52.772;-3.890;2022-08-19T08:22:47;18.10;99.90
25436;DHT22;13363;52.772;-3.890;2022-08-19T08:25:37;17.80;99.90
25436;DHT22;13363;52.772;-3.890;2022-08-19T08:28:06;17.60;99.90
25436;DHT22;13363;52.772;-3.890;2022-08-19T08:30:39;17.50;99.90
25436;DHT22;13363;52.772;-3.890;2022-08-19T08:33:14;17.40;99.90
25436;DHT22;13363;52.772;-3.890;2022-08-19T08:35:50;17.50;99.90
25436;DHT22;13363;52.772;-3.890;2022-08-19T08:38:23;17.80;99.90
25436;DHT22;13363;52.772;-3.890;2022-08-19T08:40:57;18.10;99.90
25436;DHT22;13363;52.772;-3.890;2022-08-19T08:43:44;18.10;99.90
25436;DHT22;13363;52.772;-3.890;2022-08-19T08:46:47;18.00;99.90
25436;DHT22;13363;52.772;-3.890;2022-08-19T08:53:25;17.60;99.90
25436;DHT22;13363;52.772;-3.890;2022-08-19T08:56:12;17.70;99.90
25436;DHT22;13363;52.772;-3.890;2022-08-19T08:59:00;17.60;99.90
25436;DHT22;13363;52.772;-3.890;2022-08-19T09:01:56;17.60;99.90
25436;DHT22;13363;52.772;-3.890;2022-08-19T09:04:29;17.90;99.90
25436;DHT22;13363;52.772;-3.890;2022-08-19T09:10:29;18.30;99.90
25436;DHT22;13363;52.772;-3.890;2022-08-19T09:16:23;17.60;99.90
25436;DHT22;13363;52.772;-3.890;2022-08-19T09:19:21;18.30;99.90
25436;DHT22;13363;52.772;-3.890;2022-08-19T09:21:51;18.70;99.90
25436;DHT22;13363;52.772;-3.890;2022-08-19T09:24:22;18.80;99.90
25436;DHT22;13363;52.772;-3.890;2022-08-19T09:26:50;18.60;99.90
25436;DHT22;13363;52.772;-3.890;2022-08-19T09:29:19;18.40;99.90
25436;DHT22;13363;52.772;-3.890;2022-08-19T09:31:57;18.40;99.90
25436;DHT22;13363;52.772;-3.890;2022-08-19T09:34:40;18.60;99.90
25436;DHT22;13363;52.772;-3.890;2022-08-19T09:37:16;19.20;99.90
25436;DHT22;13363;52.772;-3.890;2022-08-19T09:39:59;19.30;99.90
25436;DHT22;13363;52.772;-3.890;2022-08-19T09:42:33;19.80;99.90
25436;DHT22;13363;52.772;-3.890;2022-08-19T09:45:04;19.70;99.90
25436;DHT22;13363;52.772;-3.890;2022-08-19T09:47:32;19.30;99.90
25436;DHT22;13363;52.772;-3.890;2022-08-19T09:50:06;19.70;99.90
25436;DHT22;13363;52.772;-3.890;2022-08-19T09:52:37;19.50;99.90
25436;DHT22;13363;52.772;-3.890;2022-08-19T09:55:08;19.60;99.90
25436;DHT22;13363;52.772;-3.890;2022-08-19T09:57:34;19.20;99.90
25436;DHT22;13363;52.772;-3.890;2022-08-19T10:00:04;18.60;99.90
25436;DHT22;13363;52.772;-3.890;2022-08-19T10:02:37;18.70;99.90
25436;DHT22;13363;52.772;-3.890;2022-08-19T10:05:03;19.10;99.90
25436;DHT22;13363;52.772;-3.890;2022-08-19T10:07:48;19.10;99.90
25436;DHT22;13363;52.772;-3.890;2022-08-19T10:10:14;19.60;99.90
25436;DHT22;13363;52.772;-3.890;2022-08-19T10:12:41;20.10;99.90
25436;DHT22;13363;52.772;-3.890;2022-08-19T10:15:07;20.10;99.90
25436;DHT22;13363;52.772;-3.890;2022-08-19T10:17:35;19.90;1.00
25436;DHT22;13363;52.772;-3.890;2022-08-19T10:20:02;19.60;1.00
25436;DHT22;13363;52.772;-3.890;2022-08-19T10:22:30;19.60;1.00
25436;DHT22;13363;52.772;-3.890;2022-08-19T10:24:56;19.20;1.00
25436;DHT22;13363;52.772;-3.890;2022-08-19T10:27:23;19.20;1.00
25436;DHT22;13363;52.772;-3.890;2022-08-19T10:29:49;19.00;1.00
25436;DHT22;13363;52.772;-3.890;2022-08-19T10:32:15;18.80;1.00
25436;DHT22;13363;52.772;-3.890;2022-08-19T10:34:41;18.80;1.00
25436;DHT22;13363;52.772;-3.890;2022-08-19T10:37:07;18.90;1.00
25436;DHT22;13363;52.772;-3.890;2022-08-19T10:39:35;18.90;1.00
25436;DHT22;13363;52.772;-3.890;2022-08-19T10:42:06;19.40;1.00
25436;DHT22;13363;52.772;-3.890;2022-08-19T10:44:36;19.40;1.00
25436;DHT22;13363;52.772;-3.890;2022-08-19T10:47:03;18.90;99.90
25436;DHT22;13363;52.772;-3.890;2022-08-19T10:49:29;18.50;1.00
25436;DHT22;13363;52.772;-3.890;2022-08-19T10:51:58;18.90;1.00
25436;DHT22;13363;52.772;-3.890;2022-08-19T10:54:53;19.00;1.00
25436;DHT22;13363;52.772;-3.890;2022-08-19T10:57:43;19.30;99.90
25436;DHT22;13363;52.772;-3.890;2022-08-19T11:00:10;19.40;1.00
25436;DHT22;13363;52.772;-3.890;2022-08-19T11:02:37;19.10;99.90
25436;DHT22;13363;52.772;-3.890;2022-08-19T11:05:04;19.20;99.90
25436;DHT22;13363;52.772;-3.890;2022-08-19T11:07:32;19.30;99.90
25436;DHT22;13363;52.772;-3.890;2022-08-19T11:09:58;19.60;99.90
25436;DHT22;13363;52.772;-3.890;2022-08-19T11:12:23;19.50;1.00
25436;DHT22;13363;52.772;-3.890;2022-08-19T11:14:50;19.30;1.00
25436;DHT22;13363;52.772;-3.890;2022-08-19T11:17:16;19.10;95.20
25436;DHT22;13363;52.772;-3.890;2022-08-19T11:19:42;19.20;1.00
25436;DHT22;13363;52.772;-3.890;2022-08-19T11:22:10;19.40;99.90
25436;DHT22;13363;52.772;-3.890;2022-08-19T11:24:36;19.80;13.70
25436;DHT22;13363;52.772;-3.890;2022-08-19T11:27:07;19.80;1.00
25436;DHT22;13363;52.772;-3.890;2022-08-19T11:29:36;20.00;99.90
25436;DHT22;13363;52.772;-3.890;2022-08-19T11:32:06;19.70;99.90
25436;DHT22;13363;52.772;-3.890;2022-08-19T11:34:32;20.00;99.30
25436;DHT22;13363;52.772;-3.890;2022-08-19T11:36:58;20.10;99.90
25436;DHT22;13363;52.772;-3.890;2022-08-19T11:39:28;19.80;99.90
25436;DHT22;13363;52.772;-3.890;2022-08-19T11:41:54;19.70;99.90
25436;DHT22;13363;52.772;-3.890;2022-08-19T11:44:20;19.40;99.90
25436;DHT22;13363;52.772;-3.890;2022-08-19T11:46:46;19.20;99.90
25436;DHT22;13363;52.772;-3.890;2022-08-19T11:49:15;19.50;99.90
25436;DHT22;13363;52.772;-3.890;2022-08-19T11:51:41;19.90;55.50
25436;DHT22;13363;52.772;-3.890;2022-08-19T11:54:08;20.00;47.20
25436;DHT22;13363;52.772;-3.890;2022-08-19T11:56:37;19.90;99.90
25436;DHT22;13363;52.772;-3.890;2022-08-19T11:59:03;20.10;1.00
25436;DHT22;13363;52.772;-3.890;2022-08-19T12:01:29;19.80;1.00
25436;DHT22;13363;52.772;-3.890;2022-08-19T12:03:56;19.80;1.00
25436;DHT22;13363;52.772;-3.890;2022-08-19T12:06:29;20.00;1.00
25436;DHT22;13363;52.772;-3.890;2022-08-19T12:09:00;19.40;1.00
25436;DHT22;13363;52.772;-3.890;2022-08-19T12:11:26;18.70;99.90
25436;DHT22;13363;52.772;-3.890;2022-08-19T12:13:53;19.20;99.90
25436;DHT22;13363;52.772;-3.890;2022-08-19T12:16:23;19.40;92.20
25436;DHT22;13363;52.772;-3.890;2022-08-19T12:18:51;19.50;99.90
25436;DHT22;13363;52.772;-3.890;2022-08-19T12:21:20;19.80;95.20
25436;DHT22;13363;52.772;-3.890;2022-08-19T12:23:49;20.00;33.10
25436;DHT22;13363;52.772;-3.890;2022-08-19T12:26:15;20.20;1.00
25436;DHT22;13363;52.772;-3.890;2022-08-19T12:28:42;20.00;1.00
25436;DHT22;13363;52.772;-3.890;2022-08-19T12:31:09;19.80;1.00
25436;DHT22;13363;52.772;-3.890;2022-08-19T12:33:38;20.10;1.00
25436;DHT22;13363;52.772;-3.890;2022-08-19T12:36:07;19.70;1.00
25436;DHT22;13363;52.772;-3.890;2022-08-19T12:38:34;19.70;1.00
25436;DHT22;13363;52.772;-3.890;2022-08-19T12:41:00;20.10;99.90
25436;DHT22;13363;52.772;-3.890;2022-08-19T12:43:28;20.10;99.90
25436;DHT22;13363;52.772;-3.890;2022-08-19T12:45:55;20.20;99.90
25436;DHT22;13363;52.772;-3.890;2022-08-19T12:48:21;20.20;1.00
25436;DHT22;13363;52.772;-3.890;2022-08-19T12:50:47;19.90;99.90
25436;DHT22;13363;52.772;-3.890;2022-08-19T12:53:14;19.70;99.90
25436;DHT22;13363;52.772;-3.890;2022-08-19T12:55:41;19.80;1.00
25436;DHT22;13363;52.772;-3.890;2022-08-19T12:58:08;19.70;99.90
25436;DHT22;13363;52.772;-3.890;2022-08-19T13:00:34;19.70;4.90
25436;DHT22;13363;52.772;-3.890;2022-08-19T13:03:01;19.60;99.90
25436;DHT22;13363;52.772;-3.890;2022-08-19T13:05:30;20.00;99.90
25436;DHT22;13363;52.772;-3.890;2022-08-19T13:07:57;20.40;1.00
25436;DHT22;13363;52.772;-3.890;2022-08-19T13:10:27;20.70;1.00
25436;DHT22;13363;52.772;-3.890;2022-08-19T13:12:53;20.70;1.00
25436;DHT22;13363;52.772;-3.890;2022-08-19T13:15:21;20.50;99.90
25436;DHT22;13363;52.772;-3.890;2022-08-19T13:17:49;20.20;1.00
25436;DHT22;13363;52.772;-3.890;2022-08-19T13:20:18;20.10;1.00
25436;DHT22;13363;52.772;-3.890;2022-08-19T13:22:45;20.20;99.90
25436;DHT22;13363;52.772;-3.890;2022-08-19T13:25:12;20.60;1.00
25436;DHT22;13363;52.772;-3.890;2022-08-19T13:27:38;20.80;1.00
25436;DHT22;13363;52.772;-3.890;2022-08-19T13:30:07;20.40;1.00
25436;DHT22;13363;52.772;-3.890;2022-08-19T13:32:52;19.80;1.00
25436;DHT22;13363;52.772;-3.890;2022-08-19T13:35:40;19.50;99.90
25436;DHT22;13363;52.772;-3.890;2022-08-19T13:38:06;19.80;1.00
25436;DHT22;13363;52.772;-3.890;2022-08-19T13:40:33;20.00;99.90
25436;DHT22;13363;52.772;-3.890;2022-08-19T13:43:00;19.70;1.00
25436;DHT22;13363;52.772;-3.890;2022-08-19T13:45:28;18.90;1.00
25436;DHT22;13363;52.772;-3.890;2022-08-19T13:47:55;18.80;1.00
25436;DHT22;13363;52.772;-3.890;2022-08-19T13:50:27;19.10;1.00
25436;DHT22;13363;52.772;-3.890;2022-08-19T13:52:54;19.50;1.00
25436;DHT22;13363;52.772;-3.890;2022-08-19T13:55:22;19.40;1.00
25436;DHT22;13363;52.772;-3.890;2022-08-19T13:57:52;19.60;99.90
25436;DHT22;13363;52.772;-3.890;2022-08-19T14:00:19;19.40;1.00
25436;DHT22;13363;52.772;-3.890;2022-08-19T14:02:47;19.10;1.00
25436;DHT22;13363;52.772;-3.890;2022-08-19T14:05:15;19.20;99.90
25436;DHT22;13363;52.772;-3.890;2022-08-19T14:07:41;19.40;99.90
25436;DHT22;13363;52.772;-3.890;2022-08-19T14:10:09;19.40;99.90
25436;DHT22;13363;52.772;-3.890;2022-08-19T14:12:36;19.60;99.90
25436;DHT22;13363;52.772;-3.890;2022-08-19T14:15:04;19.50;99.90
25436;DHT22;13363;52.772;-3.890;2022-08-19T14:17:30;19.30;1.00
25436;DHT22;13363;52.772;-3.890;2022-08-19T14:19:57;19.20;1.00
25436;DHT22;13363;52.772;-3.890;2022-08-19T14:22:24;18.80;1.00
25436;DHT22;13363;52.772;-3.890;2022-08-19T14:24:49;18.70;98.80
25436;DHT22;13363;52.772;-3.890;2022-08-19T14:27:15;18.80;72.50
25436;DHT22;13363;52.772;-3.890;2022-08-19T14:29:41;18.90;1.00
25436;DHT22;13363;52.772;-3.890;2022-08-19T14:32:07;18.80;99.90
25436;DHT22;13363;52.772;-3.890;2022-08-19T14:34:33;18.80;1.00
25436;DHT22;13363;52.772;-3.890;2022-08-19T14:37:03;18.60;1.00
25436;DHT22;13363;52.772;-3.890;2022-08-19T14:39:28;18.70;1.00
25436;DHT22;13363;52.772;-3.890;2022-08-19T14:41:54;18.90;99.90
25436;DHT22;13363;52.772;-3.890;2022-08-19T14:44:21;19.00;99.90
25436;DHT22;13363;52.772;-3.890;2022-08-19T14:46:48;19.20;1.00
25436;DHT22;13363;52.772;-3.890;2022-08-19T14:49:14;19.10;1.00
25436;DHT22;13363;52.772;-3.890;2022-08-19T14:51:40;19.10;1.00
25436;DHT22;13363;52.772;-3.890;2022-08-19T14:54:05;18.90;1.00
25436;DHT22;13363;52.772;-3.890;2022-08-19T14:56:31;19.10;1.00
25436;DHT22;13363;52.772;-3.890;2022-08-19T14:58:57;19.10;1.00
25436;DHT22;13363;52.772;-3.890;2022-08-19T15:01:27;18.60;1.00
25436;DHT22;13363;52.772;-3.890;2022-08-19T15:03:53;18.80;99.90
25436;DHT22;13363;52.772;-3.890;2022-08-19T15:06:21;18.80;1.00
25436;DHT22;13363;52.772;-3.890;2022-08-19T15:08:48;18.60;1.00
25436;DHT22;13363;52.772;-3.890;2022-08-19T15:11:18;18.60;60.40
25436;DHT22;13363;52.772;-3.890;2022-08-19T15:13:46;18.80;99.90
25436;DHT22;13363;52.772;-3.890;2022-08-19T15:16:13;19.00;99.90
25436;DHT22;13363;52.772;-3.890;2022-08-19T15:18:40;18.60;1.00
25436;DHT22;13363;52.772;-3.890;2022-08-19T15:21:13;18.50;93.20
25436;DHT22;13363;52.772;-3.890;2022-08-19T15:23:40;18.60;99.90
25436;DHT22;13363;52.772;-3.890;2022-08-19T15:26:06;18.60;1.00
25436;DHT22;13363;52.772;-3.890;2022-08-19T15:28:35;18.80;1.00
25436;DHT22;13363;52.772;-3.890;2022-08-19T15:31:01;19.20;99.90
25436;DHT22;13363;52.772;-3.890;2022-08-19T15:33:27;19.00;99.90
25436;DHT22;13363;52.772;-3.890;2022-08-19T15:35:53;18.80;99.90
25436;DHT22;13363;52.772;-3.890;2022-08-19T15:38:20;18.70;1.00
25436;DHT22;13363;52.772;-3.890;2022-08-19T15:40:48;18.70;1.00
25436;DHT22;13363;52.772;-3.890;2022-08-19T15:43:15;18.40;1.00
25436;DHT22;13363;52.772;-3.890;2022-08-19T15:45:43;18.30;1.00
25436;DHT22;13363;52.772;-3.890;2022-08-19T15:48:09;18.30;99.90
25436;DHT22;13363;52.772;-3.890;2022-08-19T15:50:37;18.30;1.00